الصفحة الرئيسية
METAR-TAF:

METAR-TAF

مطار :

كارباثوس, اليونان

دائرة عرض: 35-24-51N, خط طول: 027-08-54E, ارتفاع: 6 متر

مراقبة الطقس الحالي

تاريخ ووقت الإصدار 42 دقيقة قبل الساعة 16:50UTC
ريح 9 عقدة من الجنوب/الجنوب الشرقي
درجة الحرارة 16°درجة مئوية
الرطوبة 82%
ضغط 1016 hPa
الرؤية 10 كم أو أكثر
غيوم متفرقة على ارتفاع 1600 قدم

METAR: LGKP 251650Z 15009KT 9999 SCT016 16/13 Q1016

زمن: 19:32 (17:32 UTC)

توقعات

تاريخ ووقت الإصدار 3ساعات و 32 دقيقة قبل الساعة 14:00UTC
التوقعات صالحة من25 الساعة 15 UTC إلى 25 الساعة 24 UTC
ريح 15 عقدة من الجنوب/الجنوب الشرقي
الرؤية 10 كم أو أكثر
غيوم متفرقة على ارتفاع 2000 قدم
أصبح
من 25 الساعة 19 UTC إلى 25 الساعة 21 UTC
ريح 18 عقدة من الجنوب/الجنوب الشرقي تتزايد حتى 28 عقدة
نظرية الاحتمالات 30% :
مؤقت
من 25 الساعة 21 UTC إلى 25 الساعة 24 UTC
الرؤية: 5000 متر
غيوم متفرقة على ارتفاع 2000 قدم
غيوم مفككة على ارتفاع 5000 قدم
مطر,

TAF: LGKP 251400Z 2515/2524 15015KT 9999 SCT020 BECMG 2519/2521 15018G28KT PROB30 TEMPO 2521/2524 5000 RA SCT020 BKN050

أرصاد الطقس والتوقعات من أكثر من 4000 مطار (تقارير الطقس للمطار METAR والتنبؤ بالطقس بالمطارTAF).

المحطات المتاحة هي النقط الصفراء والحمراء على الخريطة.

حرك المؤشر فوق النقطة لمعرفة اسم المحطة.

ثم انقر لمعرفة أرصاد وتوقعات الطقس.

لتغيير الخارطة: اضغط على الأزرار الخضراء مع رمز الصليب الأسود للتكبير. على الزر الأخضر مع شرطة للتصغير، أو على الأسهم الخضراء للخرائط المجاورة.


METAR-TAF: